sensor_id;sensor_type;location;lat;lon;timestamp;temperature;humidity
5130;DHT22;2583;50.946;6.954;2023-07-29T00:01:32;20.50;99.90
5130;DHT22;2583;50.946;6.954;2023-07-29T00:03:59;20.60;99.90
5130;DHT22;2583;50.946;6.954;2023-07-29T00:06:26;20.60;99.90
5130;DHT22;2583;50.946;6.954;2023-07-29T00:08:53;20.60;99.90
5130;DHT22;2583;50.946;6.954;2023-07-29T00:11:20;20.60;99.90
5130;DHT22;2583;50.946;6.954;2023-07-29T00:13:47;20.50;99.90
5130;DHT22;2583;50.946;6.954;2023-07-29T00:16:16;20.50;99.90
5130;DHT22;2583;50.946;6.954;2023-07-29T00:18:44;20.50;99.90
5130;DHT22;2583;50.946;6.954;2023-07-29T00:21:11;20.60;99.90
5130;DHT22;2583;50.946;6.954;2023-07-29T00:23:38;20.50;99.90
5130;DHT22;2583;50.946;6.954;2023-07-29T00:26:04;20.50;99.90
5130;DHT22;2583;50.946;6.954;2023-07-29T00:28:31;20.50;99.90
5130;DHT22;2583;50.946;6.954;2023-07-29T00:30:58;20.50;99.90
5130;DHT22;2583;50.946;6.954;2023-07-29T00:33:25;20.50;99.90
5130;DHT22;2583;50.946;6.954;2023-07-29T00:35:52;20.40;99.90
5130;DHT22;2583;50.946;6.954;2023-07-29T00:38:19;20.40;99.90
5130;DHT22;2583;50.946;6.954;2023-07-29T00:40:46;20.30;99.90
5130;DHT22;2583;50.946;6.954;2023-07-29T00:43:12;20.30;99.90
5130;DHT22;2583;50.946;6.954;2023-07-29T00:45:39;20.30;99.90
5130;DHT22;2583;50.946;6.954;2023-07-29T00:48:08;20.20;99.90
5130;DHT22;2583;50.946;6.954;2023-07-29T00:50:35;20.20;99.90
5130;DHT22;2583;50.946;6.954;2023-07-29T00:53:02;20.20;99.90
5130;DHT22;2583;50.946;6.954;2023-07-29T00:55:29;20.10;99.90
5130;DHT22;2583;50.946;6.954;2023-07-29T00:57:56;20.10;99.90
5130;DHT22;2583;50.946;6.954;2023-07-29T01:00:23;20.10;99.90
5130;DHT22;2583;50.946;6.954;2023-07-29T01:02:52;20.20;99.90
5130;DHT22;2583;50.946;6.954;2023-07-29T01:05:21;20.20;99.90
5130;DHT22;2583;50.946;6.954;2023-07-29T01:07:51;20.10;99.90
5130;DHT22;2583;50.946;6.954;2023-07-29T01:10:46;20.20;99.90
5130;DHT22;2583;50.946;6.954;2023-07-29T01:13:22;20.10;99.90
5130;DHT22;2583;50.946;6.954;2023-07-29T01:16:11;20.10;99.90
5130;DHT22;2583;50.946;6.954;2023-07-29T01:18:43;20.10;99.90
5130;DHT22;2583;50.946;6.954;2023-07-29T01:21:12;20.10;99.90
5130;DHT22;2583;50.946;6.954;2023-07-29T01:23:40;20.10;99.90
5130;DHT22;2583;50.946;6.954;2023-07-29T01:26:06;20.00;99.90
5130;DHT22;2583;50.946;6.954;2023-07-29T01:28:33;20.00;99.90
5130;DHT22;2583;50.946;6.954;2023-07-29T01:31:12;19.90;99.90
5130;DHT22;2583;50.946;6.954;2023-07-29T01:33:44;20.00;99.90
5130;DHT22;2583;50.946;6.954;2023-07-29T01:36:21;20.00;99.90
5130;DHT22;2583;50.946;6.954;2023-07-29T01:38:50;20.00;99.90
5130;DHT22;2583;50.946;6.954;2023-07-29T01:41:18;20.00;99.90
5130;DHT22;2583;50.946;6.954;2023-07-29T01:43:46;20.00;99.90
5130;DHT22;2583;50.946;6.954;2023-07-29T01:46:14;20.00;99.90
5130;DHT22;2583;50.946;6.954;2023-07-29T01:48:42;19.90;99.90
5130;DHT22;2583;50.946;6.954;2023-07-29T01:51:12;19.90;99.90
5130;DHT22;2583;50.946;6.954;2023-07-29T01:53:39;19.90;99.90
5130;DHT22;2583;50.946;6.954;2023-07-29T01:56:06;19.90;99.90
5130;DHT22;2583;50.946;6.954;2023-07-29T01:58:32;20.00;99.90
5130;DHT22;2583;50.946;6.954;2023-07-29T02:00:59;19.90;99.90
5130;DHT22;2583;50.946;6.954;2023-07-29T02:03:26;19.90;99.90
5130;DHT22;2583;50.946;6.954;2023-07-29T02:05:53;19.90;99.90
5130;DHT22;2583;50.946;6.954;2023-07-29T02:08:19;19.90;99.90
5130;DHT22;2583;50.946;6.954;2023-07-29T02:10:46;19.90;99.90
5130;DHT22;2583;50.946;6.954;2023-07-29T02:13:16;19.80;99.90
5130;DHT22;2583;50.946;6.954;2023-07-29T02:15:42;19.80;99.90
5130;DHT22;2583;50.946;6.954;2023-07-29T02:18:09;19.70;99.90
5130;DHT22;2583;50.946;6.954;2023-07-29T02:20:36;19.70;99.90
5130;DHT22;2583;50.946;6.954;2023-07-29T02:23:03;19.70;99.90
5130;DHT22;2583;50.946;6.954;2023-07-29T02:25:29;19.60;99.90
5130;DHT22;2583;50.946;6.954;2023-07-29T02:27:56;19.60;99.90
5130;DHT22;2583;50.946;6.954;2023-07-29T02:30:23;19.60;99.90
5130;DHT22;2583;50.946;6.954;2023-07-29T02:32:50;19.60;99.90
5130;DHT22;2583;50.946;6.954;2023-07-29T02:35:17;19.60;99.90
5130;DHT22;2583;50.946;6.954;2023-07-29T02:37:43;19.60;99.90
5130;DHT22;2583;50.946;6.954;2023-07-29T02:40:11;19.50;99.90
5130;DHT22;2583;50.946;6.954;2023-07-29T02:42:38;19.50;99.90
5130;DHT22;2583;50.946;6.954;2023-07-29T02:45:05;19.50;99.90
5130;DHT22;2583;50.946;6.954;2023-07-29T02:47:37;19.50;99.90
5130;DHT22;2583;50.946;6.954;2023-07-29T02:50:04;19.60;99.90
5130;DHT22;2583;50.946;6.954;2023-07-29T02:52:31;19.50;99.90
5130;DHT22;2583;50.946;6.954;2023-07-29T02:54:58;19.50;99.90
5130;DHT22;2583;50.946;6.954;2023-07-29T02:57:24;19.60;99.90
5130;DHT22;2583;50.946;6.954;2023-07-29T02:59:51;19.60;99.90
5130;DHT22;2583;50.946;6.954;2023-07-29T03:02:18;19.60;99.90
5130;DHT22;2583;50.946;6.954;2023-07-29T03:04:44;19.60;99.90
5130;DHT22;2583;50.946;6.954;2023-07-29T03:07:11;19.60;99.90
5130;DHT22;2583;50.946;6.954;2023-07-29T03:09:38;19.60;99.90
5130;DHT22;2583;50.946;6.954;2023-07-29T03:12:05;19.60;99.90
5130;DHT22;2583;50.946;6.954;2023-07-29T03:14:32;19.60;99.90
5130;DHT22;2583;50.946;6.954;2023-07-29T03:17:02;19.60;99.90
5130;DHT22;2583;50.946;6.954;2023-07-29T03:19:30;19.50;99.90
5130;DHT22;2583;50.946;6.954;2023-07-29T03:21:57;19.60;99.90
5130;DHT22;2583;50.946;6.954;2023-07-29T03:24:24;19.50;99.90
5130;DHT22;2583;50.946;6.954;2023-07-29T03:26:50;19.50;99.90
5130;DHT22;2583;50.946;6.954;2023-07-29T03:29:17;19.50;99.90
5130;DHT22;2583;50.946;6.954;2023-07-29T03:31:44;19.50;99.90
5130;DHT22;2583;50.946;6.954;2023-07-29T03:34:11;19.50;99.90
5130;DHT22;2583;50.946;6.954;2023-07-29T03:36:39;19.50;99.90
5130;DHT22;2583;50.946;6.954;2023-07-29T03:39:05;19.50;99.90
5130;DHT22;2583;50.946;6.954;2023-07-29T03:41:34;19.50;99.90
5130;DHT22;2583;50.946;6.954;2023-07-29T03:44:01;19.50;99.90
5130;DHT22;2583;50.946;6.954;2023-07-29T03:46:27;19.50;99.90
5130;DHT22;2583;50.946;6.954;2023-07-29T03:48:54;19.50;99.90
5130;DHT22;2583;50.946;6.954;2023-07-29T03:51:21;19.50;99.90
5130;DHT22;2583;50.946;6.954;2023-07-29T03:53:48;19.50;99.90
5130;DHT22;2583;50.946;6.954;2023-07-29T03:56:15;19.50;99.90
5130;DHT22;2583;50.946;6.954;2023-07-29T03:58:42;19.50;99.90
5130;DHT22;2583;50.946;6.954;2023-07-29T04:01:10;19.40;99.90
5130;DHT22;2583;50.946;6.954;2023-07-29T04:03:37;19.40;99.90
5130;DHT22;2583;50.946;6.954;2023-07-29T04:06:03;19.40;99.90
5130;DHT22;2583;50.946;6.954;2023-07-29T04:08:30;19.40;99.90
5130;DHT22;2583;50.946;6.954;2023-07-29T04:10:57;19.40;99.90
5130;DHT22;2583;50.946;6.954;2023-07-29T04:13:24;19.40;99.90
5130;DHT22;2583;50.946;6.954;2023-07-29T04:15:51;19.30;99.90
5130;DHT22;2583;50.946;6.954;2023-07-29T04:18:17;19.30;99.90
5130;DHT22;2583;50.946;6.954;2023-07-29T04:20:44;19.30;99.90
5130;DHT22;2583;50.946;6.954;2023-07-29T04:23:11;19.30;99.90
5130;DHT22;2583;50.946;6.954;2023-07-29T04:25:37;19.30;99.90
5130;DHT22;2583;50.946;6.954;2023-07-29T04:28:04;19.20;99.90
5130;DHT22;2583;50.946;6.954;2023-07-29T04:30:31;19.20;99.90
5130;DHT22;2583;50.946;6.954;2023-07-29T04:32:58;19.20;99.90
5130;DHT22;2583;50.946;6.954;2023-07-29T04:35:25;19.20;99.90
5130;DHT22;2583;50.946;6.954;2023-07-29T04:37:52;19.20;99.90
5130;DHT22;2583;50.946;6.954;2023-07-29T04:40:19;19.20;99.90
5130;DHT22;2583;50.946;6.954;2023-07-29T04:42:45;19.20;99.90
5130;DHT22;2583;50.946;6.954;2023-07-29T04:45:12;19.20;99.90
5130;DHT22;2583;50.946;6.954;2023-07-29T04:47:39;19.20;99.90
5130;DHT22;2583;50.946;6.954;2023-07-29T04:50:06;19.20;99.90
5130;DHT22;2583;50.946;6.954;2023-07-29T04:52:34;19.20;99.90
5130;DHT22;2583;50.946;6.954;2023-07-29T04:55:00;19.20;99.90
5130;DHT22;2583;50.946;6.954;2023-07-29T04:57:27;19.20;99.90
5130;DHT22;2583;50.946;6.954;2023-07-29T04:59:54;19.20;99.90
5130;DHT22;2583;50.946;6.954;2023-07-29T05:02:20;19.20;99.90
5130;DHT22;2583;50.946;6.954;2023-07-29T05:04:47;19.20;99.90
5130;DHT22;2583;50.946;6.954;2023-07-29T05:07:14;19.20;99.90
5130;DHT22;2583;50.946;6.954;2023-07-29T05:09:41;19.20;99.90
5130;DHT22;2583;50.946;6.954;2023-07-29T05:12:08;19.30;99.90
5130;DHT22;2583;50.946;6.954;2023-07-29T05:14:34;19.30;99.90
5130;DHT22;2583;50.946;6.954;2023-07-29T05:17:01;19.30;99.90
5130;DHT22;2583;50.946;6.954;2023-07-29T05:19:28;19.30;99.90
5130;DHT22;2583;50.946;6.954;2023-07-29T05:21:56;19.40;99.90
5130;DHT22;2583;50.946;6.954;2023-07-29T05:24:23;19.40;99.90
5130;DHT22;2583;50.946;6.954;2023-07-29T05:26:50;19.40;99.90
5130;DHT22;2583;50.946;6.954;2023-07-29T05:29:17;19.40;99.90
5130;DHT22;2583;50.946;6.954;2023-07-29T05:31:44;19.40;99.90
5130;DHT22;2583;50.946;6.954;2023-07-29T05:34:10;19.40;99.90
5130;DHT22;2583;50.946;6.954;2023-07-29T05:36:37;19.40;99.90
5130;DHT22;2583;50.946;6.954;2023-07-29T05:39:05;19.30;99.90
5130;DHT22;2583;50.946;6.954;2023-07-29T05:41:32;19.30;99.90
5130;DHT22;2583;50.946;6.954;2023-07-29T05:43:59;19.40;99.90
5130;DHT22;2583;50.946;6.954;2023-07-29T05:46:26;19.40;99.90
5130;DHT22;2583;50.946;6.954;2023-07-29T05:48:52;19.40;99.90
5130;DHT22;2583;50.946;6.954;2023-07-29T05:51:19;19.40;99.90
5130;DHT22;2583;50.946;6.954;2023-07-29T05:53:46;19.40;99.90
5130;DHT22;2583;50.946;6.954;2023-07-29T05:56:13;19.50;99.90
5130;DHT22;2583;50.946;6.954;2023-07-29T05:58:39;19.50;99.90
5130;DHT22;2583;50.946;6.954;2023-07-29T06:01:06;19.50;99.90
5130;DHT22;2583;50.946;6.954;2023-07-29T06:03:33;19.60;99.90
5130;DHT22;2583;50.946;6.954;2023-07-29T06:06:00;19.60;99.90
5130;DHT22;2583;50.946;6.954;2023-07-29T06:08:27;19.60;99.90
5130;DHT22;2583;50.946;6.954;2023-07-29T06:10:55;19.70;99.90
5130;DHT22;2583;50.946;6.954;2023-07-29T06:13:21;19.70;99.90
5130;DHT22;2583;50.946;6.954;2023-07-29T06:15:48;19.70;99.90
5130;DHT22;2583;50.946;6.954;2023-07-29T06:18:16;19.80;99.90
5130;DHT22;2583;50.946;6.954;2023-07-29T06:20:43;19.80;99.90
5130;DHT22;2583;50.946;6.954;2023-07-29T06:23:10;19.80;99.90
5130;DHT22;2583;50.946;6.954;2023-07-29T06:25:36;19.80;99.90
5130;DHT22;2583;50.946;6.954;2023-07-29T06:28:03;19.80;99.90
5130;DHT22;2583;50.946;6.954;2023-07-29T06:30:31;19.80;99.90
5130;DHT22;2583;50.946;6.954;2023-07-29T06:32:58;19.80;99.90
5130;DHT22;2583;50.946;6.954;2023-07-29T06:35:25;19.80;99.90
5130;DHT22;2583;50.946;6.954;2023-07-29T06:37:51;19.80;99.90
5130;DHT22;2583;50.946;6.954;2023-07-29T06:40:18;19.90;99.90
5130;DHT22;2583;50.946;6.954;2023-07-29T06:42:45;19.90;99.90
5130;DHT22;2583;50.946;6.954;2023-07-29T06:45:12;19.80;99.90
5130;DHT22;2583;50.946;6.954;2023-07-29T06:47:39;19.70;99.90
5130;DHT22;2583;50.946;6.954;2023-07-29T06:50:06;19.70;99.90
5130;DHT22;2583;50.946;6.954;2023-07-29T06:52:33;19.70;99.90
5130;DHT22;2583;50.946;6.954;2023-07-29T06:55:00;19.70;99.90
5130;DHT22;2583;50.946;6.954;2023-07-29T06:57:27;19.60;99.90
5130;DHT22;2583;50.946;6.954;2023-07-29T06:59:53;19.80;99.90
5130;DHT22;2583;50.946;6.954;2023-07-29T07:02:20;19.80;99.90
5130;DHT22;2583;50.946;6.954;2023-07-29T07:04:47;19.90;99.90
5130;DHT22;2583;50.946;6.954;2023-07-29T07:07:14;20.00;99.90
5130;DHT22;2583;50.946;6.954;2023-07-29T07:09:41;20.10;99.90
5130;DHT22;2583;50.946;6.954;2023-07-29T07:12:08;20.10;99.90
5130;DHT22;2583;50.946;6.954;2023-07-29T07:14:36;20.20;99.90
5130;DHT22;2583;50.946;6.954;2023-07-29T07:17:03;20.20;99.90
5130;DHT22;2583;50.946;6.954;2023-07-29T07:19:30;20.30;99.90
5130;DHT22;2583;50.946;6.954;2023-07-29T07:21:56;20.30;99.90
5130;DHT22;2583;50.946;6.954;2023-07-29T07:24:23;20.40;99.90
5130;DHT22;2583;50.946;6.954;2023-07-29T07:26:50;20.50;99.90
5130;DHT22;2583;50.946;6.954;2023-07-29T07:29:17;20.50;99.90
5130;DHT22;2583;50.946;6.954;2023-07-29T07:31:53;20.50;99.90
5130;DHT22;2583;50.946;6.954;2023-07-29T07:34:20;20.60;99.90
5130;DHT22;2583;50.946;6.954;2023-07-29T07:36:47;20.70;99.90
5130;DHT22;2583;50.946;6.954;2023-07-29T07:39:14;20.70;99.90
5130;DHT22;2583;50.946;6.954;2023-07-29T07:41:42;20.70;99.90
5130;DHT22;2583;50.946;6.954;2023-07-29T07:44:09;20.80;99.90
5130;DHT22;2583;50.946;6.954;2023-07-29T07:46:36;20.80;99.90
5130;DHT22;2583;50.946;6.954;2023-07-29T07:49:03;20.80;99.90
5130;DHT22;2583;50.946;6.954;2023-07-29T07:51:30;20.80;99.90
5130;DHT22;2583;50.946;6.954;2023-07-29T07:53:56;20.80;99.90
5130;DHT22;2583;50.946;6.954;2023-07-29T07:56:23;20.80;99.90
5130;DHT22;2583;50.946;6.954;2023-07-29T07:58:50;20.80;99.90
5130;DHT22;2583;50.946;6.954;2023-07-29T08:01:16;20.60;99.90
5130;DHT22;2583;50.946;6.954;2023-07-29T08:03:43;20.80;99.90
5130;DHT22;2583;50.946;6.954;2023-07-29T08:06:10;20.80;99.90
5130;DHT22;2583;50.946;6.954;2023-07-29T08:08:37;20.80;99.90
5130;DHT22;2583;50.946;6.954;2023-07-29T08:11:04;20.80;99.90
5130;DHT22;2583;50.946;6.954;2023-07-29T08:13:30;20.80;99.90
5130;DHT22;2583;50.946;6.954;2023-07-29T08:15:57;20.80;99.90
5130;DHT22;2583;50.946;6.954;2023-07-29T08:18:24;21.00;99.90
5130;DHT22;2583;50.946;6.954;2023-07-29T08:21:01;21.10;99.90
5130;DHT22;2583;50.946;6.954;2023-07-29T08:23:33;21.10;99.90
5130;DHT22;2583;50.946;6.954;2023-07-29T08:26:02;21.10;99.90
5130;DHT22;2583;50.946;6.954;2023-07-29T08:28:37;21.30;99.90
5130;DHT22;2583;50.946;6.954;2023-07-29T08:31:04;21.40;99.90
5130;DHT22;2583;50.946;6.954;2023-07-29T08:33:31;21.50;99.90
5130;DHT22;2583;50.946;6.954;2023-07-29T08:36:00;21.80;99.90
5130;DHT22;2583;50.946;6.954;2023-07-29T08:38:27;21.80;99.90
5130;DHT22;2583;50.946;6.954;2023-07-29T08:44:43;21.90;99.90
5130;DHT22;2583;50.946;6.954;2023-07-29T08:47:11;21.90;99.90
5130;DHT22;2583;50.946;6.954;2023-07-29T08:49:40;21.80;99.90
5130;DHT22;2583;50.946;6.954;2023-07-29T08:52:09;21.70;99.90
5130;DHT22;2583;50.946;6.954;2023-07-29T08:54:36;21.70;99.90
5130;DHT22;2583;50.946;6.954;2023-07-29T08:57:04;21.60;99.90
5130;DHT22;2583;50.946;6.954;2023-07-29T08:59:31;21.60;99.90
5130;DHT22;2583;50.946;6.954;2023-07-29T09:01:59;21.70;99.90
5130;DHT22;2583;50.946;6.954;2023-07-29T09:04:26;21.80;99.90
5130;DHT22;2583;50.946;6.954;2023-07-29T09:06:53;21.90;99.90
5130;DHT22;2583;50.946;6.954;2023-07-29T09:09:22;21.90;99.90
5130;DHT22;2583;50.946;6.954;2023-07-29T09:11:49;21.80;99.90
5130;DHT22;2583;50.946;6.954;2023-07-29T09:14:15;21.80;99.90
5130;DHT22;2583;50.946;6.954;2023-07-29T09:16:43;21.70;99.90
5130;DHT22;2583;50.946;6.954;2023-07-29T09:19:10;21.70;99.90
5130;DHT22;2583;50.946;6.954;2023-07-29T09:21:40;21.70;99.90
5130;DHT22;2583;50.946;6.954;2023-07-29T09:24:08;21.70;99.90
5130;DHT22;2583;50.946;6.954;2023-07-29T09:26:35;21.80;99.90
5130;DHT22;2583;50.946;6.954;2023-07-29T09:29:03;21.70;99.90
5130;DHT22;2583;50.946;6.954;2023-07-29T09:31:30;21.70;99.90
5130;DHT22;2583;50.946;6.954;2023-07-29T09:34:03;21.70;99.90
5130;DHT22;2583;50.946;6.954;2023-07-29T09:36:32;21.80;99.90
5130;DHT22;2583;50.946;6.954;2023-07-29T09:38:59;21.80;99.90
5130;DHT22;2583;50.946;6.954;2023-07-29T09:41:28;21.90;99.90
5130;DHT22;2583;50.946;6.954;2023-07-29T09:43:56;21.90;99.90
5130;DHT22;2583;50.946;6.954;2023-07-29T09:46:25;21.90;99.90
5130;DHT22;2583;50.946;6.954;2023-07-29T09:48:58;21.90;99.90
5130;DHT22;2583;50.946;6.954;2023-07-29T09:51:25;21.90;99.90
5130;DHT22;2583;50.946;6.954;2023-07-29T09:53:51;22.10;99.90
5130;DHT22;2583;50.946;6.954;2023-07-29T09:56:25;22.20;99.90
5130;DHT22;2583;50.946;6.954;2023-07-29T09:58:52;22.40;99.90
5130;DHT22;2583;50.946;6.954;2023-07-29T10:01:21;22.40;99.90
5130;DHT22;2583;50.946;6.954;2023-07-29T10:03:48;22.40;99.90
5130;DHT22;2583;50.946;6.954;2023-07-29T10:06:17;22.40;99.90
5130;DHT22;2583;50.946;6.954;2023-07-29T10:08:45;22.30;99.90
5130;DHT22;2583;50.946;6.954;2023-07-29T10:11:12;22.40;99.90
5130;DHT22;2583;50.946;6.954;2023-07-29T10:13:39;22.40;99.80
5130;DHT22;2583;50.946;6.954;2023-07-29T10:16:06;22.40;98.80
5130;DHT22;2583;50.946;6.954;2023-07-29T10:18:33;22.60;98.80
5130;DHT22;2583;50.946;6.954;2023-07-29T10:21:01;22.60;98.10
5130;DHT22;2583;50.946;6.954;2023-07-29T10:23:32;22.70;97.70
5130;DHT22;2583;50.946;6.954;2023-07-29T10:26:05;22.70;99.80
5130;DHT22;2583;50.946;6.954;2023-07-29T10:28:33;22.80;99.40
5130;DHT22;2583;50.946;6.954;2023-07-29T10:31:03;22.70;98.50
5130;DHT22;2583;50.946;6.954;2023-07-29T10:33:32;22.70;97.70
5130;DHT22;2583;50.946;6.954;2023-07-29T10:36:01;22.60;97.80
5130;DHT22;2583;50.946;6.954;2023-07-29T10:38:28;22.40;97.80
5130;DHT22;2583;50.946;6.954;2023-07-29T10:40:56;22.40;98.70
5130;DHT22;2583;50.946;6.954;2023-07-29T10:43:32;22.30;99.90
5130;DHT22;2583;50.946;6.954;2023-07-29T10:48:54;22.10;99.90
5130;DHT22;2583;50.946;6.954;2023-07-29T10:53:59;21.80;99.90
5130;DHT22;2583;50.946;6.954;2023-07-29T10:56:33;21.80;99.90
5130;DHT22;2583;50.946;6.954;2023-07-29T10:59:22;21.80;99.90
5130;DHT22;2583;50.946;6.954;2023-07-29T11:01:58;22.00;99.90
5130;DHT22;2583;50.946;6.954;2023-07-29T11:04:26;22.00;99.90
5130;DHT22;2583;50.946;6.954;2023-07-29T11:12:42;22.20;99.90
5130;DHT22;2583;50.946;6.954;2023-07-29T11:17:39;22.50;99.90
5130;DHT22;2583;50.946;6.954;2023-07-29T11:20:06;22.50;99.90
5130;DHT22;2583;50.946;6.954;2023-07-29T11:22:34;22.40;99.90
5130;DHT22;2583;50.946;6.954;2023-07-29T11:25:02;22.40;99.90
5130;DHT22;2583;50.946;6.954;2023-07-29T11:27:29;22.40;99.90
5130;DHT22;2583;50.946;6.954;2023-07-29T11:30:04;22.50;99.90
5130;DHT22;2583;50.946;6.954;2023-07-29T11:32:35;22.50;99.90
5130;DHT22;2583;50.946;6.954;2023-07-29T11:37:32;22.80;99.90
5130;DHT22;2583;50.946;6.954;2023-07-29T11:39:59;23.00;99.90
5130;DHT22;2583;50.946;6.954;2023-07-29T11:42:27;23.10;99.90
5130;DHT22;2583;50.946;6.954;2023-07-29T11:44:57;23.10;99.50
5130;DHT22;2583;50.946;6.954;2023-07-29T11:47:25;23.20;98.20
5130;DHT22;2583;50.946;6.954;2023-07-29T11:49:52;23.20;98.40
5130;DHT22;2583;50.946;6.954;2023-07-29T11:52:19;23.30;97.00
5130;DHT22;2583;50.946;6.954;2023-07-29T11:54:48;23.50;95.30
5130;DHT22;2583;50.946;6.954;2023-07-29T11:57:16;23.70;97.40
5130;DHT22;2583;50.946;6.954;2023-07-29T11:59:45;24.00;94.20
5130;DHT22;2583;50.946;6.954;2023-07-29T12:02:15;24.50;95.20
5130;DHT22;2583;50.946;6.954;2023-07-29T12:04:43;24.60;91.40
5130;DHT22;2583;50.946;6.954;2023-07-29T12:07:13;24.30;88.50
5130;DHT22;2583;50.946;6.954;2023-07-29T12:09:41;24.20;89.30
5130;DHT22;2583;50.946;6.954;2023-07-29T12:12:08;24.50;89.90
5130;DHT22;2583;50.946;6.954;2023-07-29T12:14:36;25.00;85.60
5130;DHT22;2583;50.946;6.954;2023-07-29T12:17:05;25.30;69.70
5130;DHT22;2583;50.946;6.954;2023-07-29T12:19:33;25.40;69.10
5130;DHT22;2583;50.946;6.954;2023-07-29T12:22:05;25.50;61.80
5130;DHT22;2583;50.946;6.954;2023-07-29T12:24:39;25.60;59.00
5130;DHT22;2583;50.946;6.954;2023-07-29T12:27:13;25.60;63.50
5130;DHT22;2583;50.946;6.954;2023-07-29T12:29:41;25.60;59.00
5130;DHT22;2583;50.946;6.954;2023-07-29T12:32:09;25.80;69.90
5130;DHT22;2583;50.946;6.954;2023-07-29T12:34:37;25.80;58.10
5130;DHT22;2583;50.946;6.954;2023-07-29T12:37:06;25.40;59.00
5130;DHT22;2583;50.946;6.954;2023-07-29T12:39:35;25.50;62.40
5130;DHT22;2583;50.946;6.954;2023-07-29T12:42:03;25.80;57.90
5130;DHT22;2583;50.946;6.954;2023-07-29T12:44:32;26.00;54.40
5130;DHT22;2583;50.946;6.954;2023-07-29T12:47:04;26.30;59.50
5130;DHT22;2583;50.946;6.954;2023-07-29T12:49:31;26.40;52.10
5130;DHT22;2583;50.946;6.954;2023-07-29T12:51:59;26.00;48.90
5130;DHT22;2583;50.946;6.954;2023-07-29T12:54:26;25.70;51.40
5130;DHT22;2583;50.946;6.954;2023-07-29T12:56:53;25.50;53.40
5130;DHT22;2583;50.946;6.954;2023-07-29T12:59:20;25.50;52.60
5130;DHT22;2583;50.946;6.954;2023-07-29T13:01:46;25.40;52.70
5130;DHT22;2583;50.946;6.954;2023-07-29T13:04:13;25.30;46.10
5130;DHT22;2583;50.946;6.954;2023-07-29T13:06:40;25.30;46.90
5130;DHT22;2583;50.946;6.954;2023-07-29T13:09:07;25.30;48.70
5130;DHT22;2583;50.946;6.954;2023-07-29T13:11:34;25.30;48.90
5130;DHT22;2583;50.946;6.954;2023-07-29T13:14:01;25.50;50.40
5130;DHT22;2583;50.946;6.954;2023-07-29T13:16:28;25.40;51.70
5130;DHT22;2583;50.946;6.954;2023-07-29T13:18:56;25.30;51.20
5130;DHT22;2583;50.946;6.954;2023-07-29T13:21:23;25.10;54.80
5130;DHT22;2583;50.946;6.954;2023-07-29T13:23:52;25.00;58.80
5130;DHT22;2583;50.946;6.954;2023-07-29T13:26:18;24.90;59.00
5130;DHT22;2583;50.946;6.954;2023-07-29T13:28:45;24.70;63.10
5130;DHT22;2583;50.946;6.954;2023-07-29T13:31:12;24.40;66.00
5130;DHT22;2583;50.946;6.954;2023-07-29T13:33:39;24.00;71.60
5130;DHT22;2583;50.946;6.954;2023-07-29T13:36:06;23.90;90.10
5130;DHT22;2583;50.946;6.954;2023-07-29T13:38:35;23.70;94.00
5130;DHT22;2583;50.946;6.954;2023-07-29T13:41:02;23.60;95.70
5130;DHT22;2583;50.946;6.954;2023-07-29T13:43:29;23.40;99.80
5130;DHT22;2583;50.946;6.954;2023-07-29T13:45:56;23.30;99.90
5130;DHT22;2583;50.946;6.954;2023-07-29T13:48:23;23.10;99.90
5130;DHT22;2583;50.946;6.954;2023-07-29T13:50:50;23.10;99.90
5130;DHT22;2583;50.946;6.954;2023-07-29T13:53:18;22.90;99.90
5130;DHT22;2583;50.946;6.954;2023-07-29T13:55:45;22.80;99.90
5130;DHT22;2583;50.946;6.954;2023-07-29T13:58:12;22.70;99.90
5130;DHT22;2583;50.946;6.954;2023-07-29T14:00:38;22.70;99.90
5130;DHT22;2583;50.946;6.954;2023-07-29T14:03:05;22.60;99.90
5130;DHT22;2583;50.946;6.954;2023-07-29T14:05:32;22.60;99.90
5130;DHT22;2583;50.946;6.954;2023-07-29T14:07:59;22.50;99.90
5130;DHT22;2583;50.946;6.954;2023-07-29T14:10:25;22.40;99.90
5130;DHT22;2583;50.946;6.954;2023-07-29T14:12:53;22.60;99.90
5130;DHT22;2583;50.946;6.954;2023-07-29T14:15:20;22.70;99.90
5130;DHT22;2583;50.946;6.954;2023-07-29T14:17:47;22.70;99.90
5130;DHT22;2583;50.946;6.954;2023-07-29T14:20:14;22.80;99.90
5130;DHT22;2583;50.946;6.954;2023-07-29T14:22:41;22.80;99.90
5130;DHT22;2583;50.946;6.954;2023-07-29T14:25:08;23.00;99.90
5130;DHT22;2583;50.946;6.954;2023-07-29T14:27:35;23.50;99.90
5130;DHT22;2583;50.946;6.954;2023-07-29T14:30:03;23.90;99.90
5130;DHT22;2583;50.946;6.954;2023-07-29T14:32:29;24.00;99.90
5130;DHT22;2583;50.946;6.954;2023-07-29T14:34:57;23.90;99.90
5130;DHT22;2583;50.946;6.954;2023-07-29T14:37:23;23.90;99.90
5130;DHT22;2583;50.946;6.954;2023-07-29T14:39:50;23.90;99.90
5130;DHT22;2583;50.946;6.954;2023-07-29T14:42:17;24.00;99.90
5130;DHT22;2583;50.946;6.954;2023-07-29T14:44:44;23.80;99.90
5130;DHT22;2583;50.946;6.954;2023-07-29T14:47:11;23.70;99.90
5130;DHT22;2583;50.946;6.954;2023-07-29T14:49:38;23.60;99.90
5130;DHT22;2583;50.946;6.954;2023-07-29T14:52:06;23.40;99.90
5130;DHT22;2583;50.946;6.954;2023-07-29T14:54:33;23.40;99.90
5130;DHT22;2583;50.946;6.954;2023-07-29T14:56:59;23.40;99.90
5130;DHT22;2583;50.946;6.954;2023-07-29T14:59:26;23.40;99.90
5130;DHT22;2583;50.946;6.954;2023-07-29T15:01:53;23.40;99.90
5130;DHT22;2583;50.946;6.954;2023-07-29T15:04:20;23.40;99.90
5130;DHT22;2583;50.946;6.954;2023-07-29T15:06:47;23.40;99.90
5130;DHT22;2583;50.946;6.954;2023-07-29T15:09:14;23.30;99.90
5130;DHT22;2583;50.946;6.954;2023-07-29T15:11:40;23.20;99.90
5130;DHT22;2583;50.946;6.954;2023-07-29T15:14:08;23.10;99.90
5130;DHT22;2583;50.946;6.954;2023-07-29T15:16:35;23.10;99.90
5130;DHT22;2583;50.946;6.954;2023-07-29T15:19:04;23.10;99.90
5130;DHT22;2583;50.946;6.954;2023-07-29T15:21:31;23.10;99.90
5130;DHT22;2583;50.946;6.954;2023-07-29T15:24:00;23.20;99.90
5130;DHT22;2583;50.946;6.954;2023-07-29T15:26:27;23.20;99.90
5130;DHT22;2583;50.946;6.954;2023-07-29T15:28:55;23.40;99.90
5130;DHT22;2583;50.946;6.954;2023-07-29T15:31:22;23.50;99.90
5130;DHT22;2583;50.946;6.954;2023-07-29T15:33:49;23.50;99.90
5130;DHT22;2583;50.946;6.954;2023-07-29T15:36:16;23.60;99.90
5130;DHT22;2583;50.946;6.954;2023-07-29T15:38:43;23.60;99.90
5130;DHT22;2583;50.946;6.954;2023-07-29T15:41:10;23.70;99.90
5130;DHT22;2583;50.946;6.954;2023-07-29T15:43:37;23.80;99.90
5130;DHT22;2583;50.946;6.954;2023-07-29T15:46:04;23.90;99.90
5130;DHT22;2583;50.946;6.954;2023-07-29T15:48:31;23.80;99.90
5130;DHT22;2583;50.946;6.954;2023-07-29T15:50:58;23.60;99.90
5130;DHT22;2583;50.946;6.954;2023-07-29T15:53:24;23.50;99.90
5130;DHT22;2583;50.946;6.954;2023-07-29T15:55:51;23.50;99.90
5130;DHT22;2583;50.946;6.954;2023-07-29T15:58:18;23.40;99.90
5130;DHT22;2583;50.946;6.954;2023-07-29T16:00:45;23.40;99.90
5130;DHT22;2583;50.946;6.954;2023-07-29T16:03:12;23.40;99.90
5130;DHT22;2583;50.946;6.954;2023-07-29T16:05:39;23.30;99.90
5130;DHT22;2583;50.946;6.954;2023-07-29T16:08:05;23.20;99.90
5130;DHT22;2583;50.946;6.954;2023-07-29T16:10:32;23.20;99.90
5130;DHT22;2583;50.946;6.954;2023-07-29T16:12:59;23.00;99.90
5130;DHT22;2583;50.946;6.954;2023-07-29T16:15:29;23.00;99.90
5130;DHT22;2583;50.946;6.954;2023-07-29T16:17:55;22.90;99.90
5130;DHT22;2583;50.946;6.954;2023-07-29T16:20:25;22.80;99.90
5130;DHT22;2583;50.946;6.954;2023-07-29T16:22:52;22.80;99.90
5130;DHT22;2583;50.946;6.954;2023-07-29T16:25:19;22.70;99.90